Time,TemperatureF,DewpointF,PressureIn,WindDirection,WindDirectionDegrees,WindSpeedMPH,WindSpeedGustMPH,Humidity,HourlyPrecipIn,Conditions,Clouds,dailyrainin,SoftwareType,DateUTC
2013-03-10 00:00:00,47.4,31.6,30.21,West,274,0.0,2.0,54,0.00,,---,0.00,VWS V14.00,2013-03-10 05:00:00,
2013-03-10 00:05:00,47.3,31.5,30.22,West,280,3.0,3.0,54,0.00,,---,0.00,VWS V14.00,2013-03-10 05:05:00,
2013-03-10 00:10:00,47.2,31.4,30.19,WNW,282,0.0,2.0,54,0.00,,---,0.00,VWS V14.00,2013-03-10 05:10:00,
2013-03-10 00:15:00,47.1,31.8,30.20,WSW,254,0.0,2.0,55,0.00,,---,0.00,VWS V14.00,2013-03-10 05:15:00,
2013-03-10 00:20:00,47.0,31.2,30.19,WSW,255,1.0,2.0,54,0.00,,---,0.00,VWS V14.00,2013-03-10 05:20:00,
2013-03-10 00:25:00,46.9,31.1,30.19,WSW,257,0.0,2.0,54,0.00,,---,0.00,VWS V14.00,2013-03-10 05:25:00,
2013-03-10 00:30:00,46.8,31.0,30.19,NNW,346,0.0,3.0,54,0.00,,---,0.00,VWS V14.00,2013-03-10 05:30:00,
2013-03-10 00:35:00,46.8,31.0,30.19,NNW,330,0.0,4.0,54,0.00,,---,0.00,VWS V14.00,2013-03-10 05:35:00,
2013-03-10 00:40:00,46.8,31.0,30.19,NNW,334,0.0,2.0,54,0.00,,---,0.00,VWS V14.00,2013-03-10 05:40:00,
2013-03-10 00:45:00,46.8,31.0,30.19,NNW,334,0.0,2.0,54,0.00,,---,0.00,VWS V14.00,2013-03-10 05:45:00,
2013-03-10 00:50:00,46.8,31.0,30.19,NNE,17,0.0,3.0,54,0.00,,---,0.00,VWS V14.00,2013-03-10 05:50:00,
2013-03-10 00:53:00,45.5,31.6,30.19,WSW,244,0.0,4.0,58,0.00,,---,0.00,VWS V14.00,2013-03-10 05:53:00,
2013-03-10 00:54:00,45.5,31.6,30.19,SW,229,1.0,4.0,58,0.00,,---,0.00,VWS V14.00,2013-03-10 05:54:00,
2013-03-10 00:55:00,46.8,31.0,30.19,West,276,0.0,3.0,54,0.00,,---,0.00,VWS V14.00,2013-03-10 05:55:00,
2013-03-10 00:56:00,45.4,31.1,30.19,NE,53,0.0,4.0,57,0.00,,---,0.00,VWS V14.00,2013-03-10 05:56:00,
2013-03-10 00:57:00,45.4,31.1,30.19,WNW,295,2.0,4.0,57,0.00,,---,0.00,VWS V14.00,2013-03-10 05:57:00,
2013-03-10 00:58:00,45.4,31.5,30.19,WNW,296,3.0,4.0,58,0.00,,---,0.00,VWS V14.00,2013-03-10 05:58:00,
2013-03-10 00:59:00,45.4,31.5,30.19,WNW,296,0.0,4.0,58,0.00,,---,0.00,VWS V14.00,2013-03-10 05:59:00,
2013-03-10 01:00:00,46.7,31.0,30.19,West,277,0.0,3.0,54,0.00,,---,0.00,VWS V14.00,2013-03-10 06:00:00,
2013-03-10 01:05:00,46.7,31.4,30.19,WNW,298,0.0,4.0,55,0.00,,---,0.00,VWS V14.00,2013-03-10 06:05:00,
2013-03-10 01:10:00,46.7,31.4,30.19,WSW,252,0.0,3.0,55,0.00,,---,0.00,VWS V14.00,2013-03-10 06:10:00,
2013-03-10 01:15:00,46.5,31.2,30.19,WNW,302,1.0,5.0,55,0.00,,---,0.00,VWS V14.00,2013-03-10 06:15:00,
2013-03-10 01:20:00,46.5,31.2,30.19,East,99,0.0,5.0,55,0.00,,---,0.00,VWS V14.00,2013-03-10 06:20:00,
2013-03-10 01:25:00,46.5,31.2,30.19,East,99,0.0,5.0,55,0.00,,---,0.00,VWS V14.00,2013-03-10 06:25:00,
2013-03-10 01:30:00,46.4,31.6,30.20,East,99,0.0,5.0,56,0.00,,---,0.00,VWS V14.00,2013-03-10 06:30:00,
2013-03-10 01:35:00,46.2,31.4,30.20,South,183,1.0,5.0,56,0.00,,---,0.00,VWS V14.00,2013-03-10 06:35:00,
2013-03-10 01:40:00,46.1,31.3,30.20,SSW,195,0.0,3.0,56,0.00,,---,0.00,VWS V14.00,2013-03-10 06:40:00,
2013-03-10 01:45:00,45.9,31.1,30.20,SSW,198,0.0,3.0,56,0.00,,---,0.00,VWS V14.00,2013-03-10 06:45:00,
2013-03-10 01:50:00,45.8,31.5,30.20,WSW,243,0.0,4.0,57,0.00,,---,0.00,VWS V14.00,2013-03-10 06:50:00,
2013-03-10 01:55:00,45.6,31.3,30.19,WSW,242,0.0,4.0,57,0.00,,---,0.00,VWS V14.00,2013-03-10 06:55:00,
2013-03-10 03:06:00,45.4,31.5,30.19,WNW,296,0.0,4.0,58,0.00,,---,0.00,VWS V14.00,2013-03-10 07:06:00,
2013-03-10 03:11:00,45.3,31.4,30.18,NW,319,0.0,6.0,58,0.00,,---,0.00,VWS V14.00,2013-03-10 07:11:00,
2013-03-10 03:16:00,45.4,31.1,30.18,West,260,2.0,6.0,57,0.00,,---,0.00,VWS V14.00,2013-03-10 07:16:00,
2013-03-10 03:21:00,45.4,31.5,30.18,West,259,0.0,6.0,58,0.00,,---,0.00,VWS V14.00,2013-03-10 07:21:00,
2013-03-10 03:26:00,45.4,31.1,30.18,NE,38,0.0,6.0,57,0.00,,---,0.00,VWS V14.00,2013-03-10 07:26:00,
2013-03-10 03:31:00,45.4,31.5,30.17,WSW,242,0.0,6.0,58,0.00,,---,0.00,VWS V14.00,2013-03-10 07:31:00,
2013-03-10 03:36:00,45.4,31.9,30.17,WSW,242,0.0,6.0,59,0.00,,---,0.00,VWS V14.00,2013-03-10 07:36:00,
2013-03-10 03:41:00,45.2,31.7,30.17,WSW,242,2.0,2.0,59,0.00,,---,0.00,VWS V14.00,2013-03-10 07:41:00,
2013-03-10 03:46:00,45.1,31.2,30.17,West,261,0.0,3.0,58,0.00,,---,0.00,VWS V14.00,2013-03-10 07:46:00,
2013-03-10 03:51:00,45.0,31.5,30.16,West,279,0.0,4.0,59,0.00,,---,0.00,VWS V14.00,2013-03-10 07:51:00,
2013-03-10 03:56:00,45.0,31.5,30.17,South,190,0.0,4.0,59,0.00,,---,0.00,VWS V14.00,2013-03-10 07:56:00,
2013-03-10 04:01:00,45.0,31.5,30.16,South,190,0.0,4.0,59,0.00,,---,0.00,VWS V14.00,2013-03-10 08:01:00,
2013-03-10 04:06:00,45.0,31.5,30.16,WSW,254,1.0,4.0,59,0.00,,---,0.00,VWS V14.00,2013-03-10 08:06:00,
2013-03-10 04:11:00,44.8,31.4,30.16,WSW,254,0.0,1.0,59,0.00,,---,0.00,VWS V14.00,2013-03-10 08:11:00,
2013-03-10 04:16:00,44.7,31.3,30.16,WSW,254,0.0,1.0,59,0.00,,---,0.00,VWS V14.00,2013-03-10 08:16:00,
2013-03-10 04:21:00,44.5,31.5,30.16,WSW,254,0.0,3.0,60,0.00,,---,0.00,VWS V14.00,2013-03-10 08:21:00,
2013-03-10 04:26:00,44.3,30.9,30.16,WNW,303,0.0,5.0,59,0.00,,---,0.00,VWS V14.00,2013-03-10 08:26:00,
2013-03-10 04:31:00,44.2,30.8,30.16,NW,304,0.0,5.0,59,0.00,,---,0.00,VWS V14.00,2013-03-10 08:31:00,
2013-03-10 04:36:00,44.2,31.2,30.15,WNW,303,0.0,5.0,60,0.00,,---,0.00,VWS V14.00,2013-03-10 08:36:00,
2013-03-10 04:41:00,44.1,31.5,30.15,WNW,303,0.0,1.0,61,0.00,,---,0.00,VWS V14.00,2013-03-10 08:41:00,
2013-03-10 04:46:00,44.0,31.4,30.15,WNW,296,0.0,2.0,61,0.00,,---,0.00,VWS V14.00,2013-03-10 08:46:00,
2013-03-10 04:51:00,43.7,31.5,30.15,WNW,296,0.0,2.0,62,0.00,,---,0.00,VWS V14.00,2013-03-10 08:51:00,
2013-03-10 04:56:00,43.5,31.4,30.15,WNW,296,0.0,2.0,62,0.00,,---,0.00,VWS V14.00,2013-03-10 08:56:00,
2013-03-10 05:01:00,43.3,31.2,30.15,WNW,296,0.0,2.0,62,0.00,,---,0.00,VWS V14.00,2013-03-10 09:01:00,
2013-03-10 05:06:00,43.1,31.0,30.16,WNW,296,0.0,2.0,62,0.00,,---,0.00,VWS V14.00,2013-03-10 09:06:00,
2013-03-10 05:11:00,42.9,31.2,30.17,WNW,296,0.0,0.0,63,0.00,,---,0.00,VWS V14.00,2013-03-10 09:11:00,
2013-03-10 05:16:00,42.7,31.0,30.17,WNW,296,0.0,1.0,63,0.00,,---,0.00,VWS V14.00,2013-03-10 09:16:00,
2013-03-10 05:21:00,42.6,31.3,30.17,WNW,296,0.0,2.0,64,0.00,,---,0.00,VWS V14.00,2013-03-10 09:21:00,
2013-03-10 05:26:00,42.5,30.8,30.17,WNW,296,0.0,2.0,63,0.00,,---,0.00,VWS V14.00,2013-03-10 09:26:00,
2013-03-10 05:31:00,42.4,30.7,30.17,WNW,296,0.0,2.0,63,0.00,,---,0.00,VWS V14.00,2013-03-10 09:31:00,
2013-03-10 05:36:00,42.4,31.1,30.17,WNW,287,0.0,3.0,64,0.00,,---,0.00,VWS V14.00,2013-03-10 09:36:00,
2013-03-10 05:41:00,42.5,31.2,30.18,WNW,288,0.0,3.0,64,0.00,,---,0.00,VWS V14.00,2013-03-10 09:41:00,
2013-03-10 05:46:00,42.7,31.4,30.18,WNW,288,0.0,3.0,64,0.00,,---,0.00,VWS V14.00,2013-03-10 09:46:00,
2013-03-10 05:51:00,43.1,31.0,30.18,ENE,74,0.0,11.0,62,0.00,,---,0.00,VWS V14.00,2013-03-10 09:51:00,
2013-03-10 05:56:00,43.6,30.6,30.17,NW,321,0.0,11.0,60,0.00,,---,0.00,VWS V14.00,2013-03-10 09:56:00,
2013-03-10 06:01:00,44.2,31.2,30.17,West,276,3.0,11.0,60,0.00,,---,0.00,VWS V14.00,2013-03-10 10:01:00,
2013-03-10 06:06:00,44.5,31.5,30.18,WNW,300,0.0,11.0,60,0.00,,---,0.00,VWS V14.00,2013-03-10 10:06:00,
2013-03-10 06:11:00,44.6,31.6,30.18,West,276,0.0,5.0,60,0.00,,---,0.00,VWS V14.00,2013-03-10 10:11:00,
2013-03-10 06:16:00,44.6,32.4,30.18,WSW,248,0.0,5.0,62,0.00,,---,0.00,VWS V14.00,2013-03-10 10:16:00,
2013-03-10 06:21:00,44.4,31.4,30.18,West,271,1.0,6.0,60,0.00,,---,0.00,VWS V14.00,2013-03-10 10:21:00,
2013-03-10 06:26:00,44.4,31.8,30.19,SSE,157,0.0,6.0,61,0.00,,---,0.00,VWS V14.00,2013-03-10 10:26:00,
2013-03-10 06:31:00,44.4,31.4,30.19,NW,322,0.0,6.0,60,0.00,,---,0.00,VWS V14.00,2013-03-10 10:31:00,
2013-03-10 06:36:00,44.3,31.7,30.20,WNW,302,0.0,6.0,61,0.00,,---,0.00,VWS V14.00,2013-03-10 10:36:00,
2013-03-10 06:41:00,44.3,30.9,30.19,WNW,302,0.0,2.0,59,0.00,,---,0.00,VWS V14.00,2013-03-10 10:41:00,
2013-03-10 06:46:00,44.3,30.9,30.19,WNW,303,0.0,3.0,59,0.00,,---,0.00,VWS V14.00,2013-03-10 10:46:00,
2013-03-10 06:51:00,44.3,31.7,30.19,WNW,303,0.0,3.0,61,0.00,,---,0.00,VWS V14.00,2013-03-10 10:51:00,
2013-03-10 06:56:00,44.3,31.7,30.19,WNW,303,0.0,3.0,61,0.00,,---,0.00,VWS V14.00,2013-03-10 10:56:00,
2013-03-10 07:01:00,44.3,31.3,30.19,NNW,337,0.0,3.0,60,0.00,,---,0.00,VWS V14.00,2013-03-10 11:01:00,
2013-03-10 07:06:00,44.3,30.9,30.19,West,269,0.0,3.0,59,0.00,,---,0.00,VWS V14.00,2013-03-10 11:06:00,
2013-03-10 07:11:00,44.3,30.9,30.20,West,273,3.0,3.0,59,0.00,,---,0.00,VWS V14.00,2013-03-10 11:11:00,
2013-03-10 07:16:00,44.6,31.2,30.20,North,350,0.0,4.0,59,0.00,,---,0.00,VWS V14.00,2013-03-10 11:16:00,
2013-03-10 07:21:00,44.8,30.9,30.20,SW,218,1.0,5.0,58,0.00,,---,0.00,VWS V14.00,2013-03-10 11:21:00,
2013-03-10 07:26:00,44.9,31.5,30.20,NE,37,0.0,5.0,59,0.00,,---,0.00,VWS V14.00,2013-03-10 11:26:00,
2013-03-10 07:31:00,45.0,31.1,30.20,NNE,33,0.0,5.0,58,0.00,,---,0.00,VWS V14.00,2013-03-10 11:31:00,
2013-03-10 07:36:00,45.0,31.1,30.21,NW,306,0.0,5.0,58,0.00,,---,0.00,VWS V14.00,2013-03-10 11:36:00,
2013-03-10 07:41:00,45.1,31.6,30.21,WNW,288,0.0,7.0,59,0.00,,---,0.00,VWS V14.00,2013-03-10 11:41:00,
2013-03-10 07:46:00,45.0,31.1,30.21,SE,129,0.0,7.0,58,0.00,,---,0.00,VWS V14.00,2013-03-10 11:46:00,
2013-03-10 07:51:00,45.1,32.1,30.21,WNW,302,0.0,7.0,60,0.00,,---,0.00,VWS V14.00,2013-03-10 11:51:00,
2013-03-10 07:56:00,45.1,31.6,30.21,WNW,293,0.0,7.0,59,0.00,,---,0.00,VWS V14.00,2013-03-10 11:56:00,
2013-03-10 08:01:00,45.2,30.9,30.21,West,271,1.0,7.0,57,0.00,,---,0.00,VWS V14.00,2013-03-10 12:01:00,
2013-03-10 08:06:00,45.2,32.6,30.21,West,271,0.0,7.0,61,0.00,,---,0.00,VWS V14.00,2013-03-10 12:06:00,
2013-03-10 08:11:00,45.1,31.2,30.21,WSW,258,0.0,7.0,58,0.00,,---,0.00,VWS V14.00,2013-03-10 12:11:00,
2013-03-10 08:16:00,45.0,33.2,30.23,SSW,213,1.0,7.0,63,0.00,,---,0.00,VWS V14.00,2013-03-10 12:16:00,
2013-03-10 08:21:00,44.6,31.6,30.23,WNW,290,0.0,7.0,60,0.00,,---,0.00,VWS V14.00,2013-03-10 12:21:00,
2013-03-10 08:26:00,44.4,31.0,30.24,NE,50,0.0,7.0,59,0.00,,---,0.00,VWS V14.00,2013-03-10 12:26:00,
2013-03-10 08:31:00,44.6,30.8,30.23,East,92,3.0,7.0,58,0.00,,---,0.00,VWS V14.00,2013-03-10 12:31:00,
2013-03-10 08:36:00,45.0,31.1,30.23,NW,321,3.0,7.0,58,0.00,,---,0.00,VWS V14.00,2013-03-10 12:36:00,
2013-03-10 08:41:00,45.3,31.0,30.23,NNW,327,0.0,4.0,57,0.00,,---,0.00,VWS V14.00,2013-03-10 12:41:00,
2013-03-10 08:46:00,45.6,31.3,30.23,NW,322,1.0,4.0,57,0.00,,---,0.00,VWS V14.00,2013-03-10 12:46:00,
2013-03-10 08:51:00,45.9,31.1,30.23,NNW,344,4.0,4.0,56,0.00,,---,0.00,VWS V14.00,2013-03-10 12:51:00,
2013-03-10 08:56:00,46.2,31.4,30.22,West,273,2.0,8.0,56,0.00,,---,0.00,VWS V14.00,2013-03-10 12:56:00,
2013-03-10 09:01:00,46.4,32.4,30.23,SW,217,0.0,8.0,58,0.00,,---,0.00,VWS V14.00,2013-03-10 13:01:00,
2013-03-10 09:06:00,46.5,32.1,30.23,ESE,119,0.0,8.0,57,0.00,,---,0.00,VWS V14.00,2013-03-10 13:06:00,
2013-03-10 09:11:00,46.6,31.8,30.24,East,89,3.0,5.0,56,0.00,,---,0.00,VWS V14.00,2013-03-10 13:11:00,
2013-03-10 09:16:00,46.7,31.9,30.24,East,88,0.0,5.0,56,0.00,,---,0.00,VWS V14.00,2013-03-10 13:16:00,
2013-03-10 09:21:00,46.7,32.3,30.24,NNE,17,0.0,5.0,57,0.00,,---,0.00,VWS V14.00,2013-03-10 13:21:00,
2013-03-10 09:26:00,46.7,31.9,30.24,SE,136,0.0,5.0,56,0.00,,---,0.00,VWS V14.00,2013-03-10 13:26:00,
2013-03-10 09:31:00,46.7,31.9,30.24,WNW,302,3.0,5.0,56,0.00,,---,0.00,VWS V14.00,2013-03-10 13:31:00,
2013-03-10 09:36:00,46.7,31.9,30.24,SSW,209,0.0,6.0,56,0.00,,---,0.00,VWS V14.00,2013-03-10 13:36:00,
2013-03-10 09:41:00,46.7,32.3,30.24,WNW,286,0.0,4.0,57,0.00,,---,0.00,VWS V14.00,2013-03-10 13:41:00,
2013-03-10 09:46:00,47.0,32.6,30.24,WSW,245,4.0,4.0,57,0.00,,---,0.00,VWS V14.00,2013-03-10 13:46:00,
2013-03-10 09:51:00,47.3,32.4,30.24,SSW,202,0.0,8.0,56,0.00,,---,0.00,VWS V14.00,2013-03-10 13:51:00,
2013-03-10 09:56:00,47.5,33.0,30.23,WNW,295,2.0,8.0,57,0.00,,---,0.00,VWS V14.00,2013-03-10 13:56:00,
2013-03-10 10:01:00,47.9,32.5,30.23,SE,138,0.0,8.0,55,0.00,,---,0.00,VWS V14.00,2013-03-10 14:01:00,
2013-03-10 10:06:00,48.6,32.7,30.23,WSW,246,0.0,8.0,54,0.00,,---,0.00,VWS V14.00,2013-03-10 14:06:00,
2013-03-10 10:11:00,49.4,33.0,30.24,SSW,196,2.0,4.0,53,0.00,,---,0.00,VWS V14.00,2013-03-10 14:11:00,
2013-03-10 10:16:00,50.0,33.1,30.23,WSW,252,0.0,6.0,52,0.00,,---,0.00,VWS V14.00,2013-03-10 14:16:00,
2013-03-10 10:21:00,50.6,33.6,30.23,South,175,2.0,9.0,52,0.00,,---,0.00,VWS V14.00,2013-03-10 14:21:00,
2013-03-10 10:26:00,51.3,33.8,30.23,SW,215,0.0,9.0,51,0.00,,---,0.00,VWS V14.00,2013-03-10 14:26:00,
2013-03-10 10:31:00,52.0,34.0,30.22,South,189,0.0,9.0,50,0.00,,---,0.00,VWS V14.00,2013-03-10 14:31:00,
2013-03-10 10:36:00,52.6,34.0,30.22,SSE,165,1.0,9.0,49,0.00,,---,0.00,VWS V14.00,2013-03-10 14:36:00,
2013-03-10 10:41:00,53.3,34.7,30.22,SSE,150,3.0,5.0,49,0.00,,---,0.00,VWS V14.00,2013-03-10 14:41:00,
2013-03-10 10:46:00,53.7,34.0,30.22,WSW,240,6.0,10.0,47,0.00,,---,0.00,VWS V14.00,2013-03-10 14:46:00,
2013-03-10 10:51:00,54.3,34.5,30.21,South,184,1.0,10.0,47,0.00,,---,0.00,VWS V14.00,2013-03-10 14:51:00,
2013-03-10 10:56:00,54.6,34.2,30.21,ESE,109,4.0,10.0,46,0.00,,---,0.00,VWS V14.00,2013-03-10 14:56:00,
2013-03-10 11:01:00,55.1,34.2,30.20,South,180,3.0,10.0,45,0.00,,---,0.00,VWS V14.00,2013-03-10 15:01:00,
2013-03-10 11:06:00,55.3,34.9,30.20,SSW,207,1.0,10.0,46,0.00,,---,0.00,VWS V14.00,2013-03-10 15:06:00,
2013-03-10 11:11:00,55.5,34.0,30.21,South,183,7.0,7.0,44,0.00,,---,0.00,VWS V14.00,2013-03-10 15:11:00,
2013-03-10 11:16:00,55.4,33.9,30.20,South,172,4.0,11.0,44,0.00,,---,0.00,VWS V14.00,2013-03-10 15:16:00,
2013-03-10 11:21:00,55.3,34.3,30.20,West,267,1.0,12.0,45,0.00,,---,0.00,VWS V14.00,2013-03-10 15:21:00,
2013-03-10 11:26:00,55.3,33.8,30.20,SE,132,5.0,12.0,44,0.00,,---,0.00,VWS V14.00,2013-03-10 15:26:00,
2013-03-10 11:31:00,55.4,33.9,30.19,ENE,76,5.0,12.0,44,0.00,,---,0.00,VWS V14.00,2013-03-10 15:31:00,
2013-03-10 11:36:00,56.0,34.4,30.20,WSW,252,4.0,12.0,44,0.00,,---,0.00,VWS V14.00,2013-03-10 15:36:00,
2013-03-10 11:41:00,56.8,34.0,30.18,SSE,151,5.0,7.0,42,0.00,,---,0.00,VWS V14.00,2013-03-10 15:41:00,
2013-03-10 11:46:00,57.0,34.2,30.18,SW,217,4.0,9.0,42,0.00,,---,0.00,VWS V14.00,2013-03-10 15:46:00,
2013-03-10 11:51:00,56.3,33.5,30.19,NNE,19,3.0,9.0,42,0.00,,---,0.00,VWS V14.00,2013-03-10 15:51:00,
2013-03-10 11:56:00,55.9,33.8,30.19,SW,217,4.0,9.0,43,0.00,,---,0.00,VWS V14.00,2013-03-10 15:56:00,
2013-03-10 12:01:00,55.9,33.8,30.19,WSW,256,5.0,9.0,43,0.00,,---,0.00,VWS V14.00,2013-03-10 16:01:00,
2013-03-10 12:06:00,55.8,33.7,30.19,SW,223,0.0,9.0,43,0.00,,---,0.00,VWS V14.00,2013-03-10 16:06:00,
2013-03-10 12:11:00,55.9,34.3,30.19,WSW,246,2.0,8.0,44,0.00,,---,0.00,VWS V14.00,2013-03-10 16:11:00,
2013-03-10 12:16:00,56.3,34.1,30.19,SSW,203,4.0,10.0,43,0.00,,---,0.00,VWS V14.00,2013-03-10 16:16:00,
2013-03-10 12:21:00,56.4,33.6,30.18,South,169,2.0,12.0,42,0.00,,---,0.00,VWS V14.00,2013-03-10 16:21:00,
2013-03-10 12:26:00,56.2,34.0,30.18,WSW,252,9.0,12.0,43,0.00,,---,0.00,VWS V14.00,2013-03-10 16:26:00,
2013-03-10 12:31:00,56.0,33.8,30.18,East,82,4.0,12.0,43,0.00,,---,0.00,VWS V14.00,2013-03-10 16:31:00,
2013-03-10 12:36:00,56.1,35.6,30.18,NW,317,3.0,12.0,46,0.00,,---,0.00,VWS V14.00,2013-03-10 16:36:00,
2013-03-10 12:41:00,56.3,34.1,30.19,North,360,1.0,9.0,43,0.00,,---,0.00,VWS V14.00,2013-03-10 16:41:00,
2013-03-10 12:46:00,56.6,34.4,30.18,ESE,123,4.0,9.0,43,0.00,,---,0.00,VWS V14.00,2013-03-10 16:46:00,
2013-03-10 12:51:00,56.9,34.1,30.17,ESE,123,4.0,9.0,42,0.00,,---,0.00,VWS V14.00,2013-03-10 16:51:00,
2013-03-10 12:56:00,57.2,34.9,30.18,SE,137,2.0,9.0,43,0.00,,---,0.00,VWS V14.00,2013-03-10 16:56:00,
2013-03-10 13:01:00,57.5,34.6,30.17,East,96,2.0,9.0,42,0.00,,---,0.00,VWS V14.00,2013-03-10 17:01:00,
2013-03-10 13:06:00,57.7,34.8,30.16,SSW,205,0.0,10.0,42,0.00,,---,0.00,VWS V14.00,2013-03-10 17:06:00,
2013-03-10 13:11:00,58.1,35.2,30.16,South,172,3.0,6.0,42,0.00,,---,0.00,VWS V14.00,2013-03-10 17:11:00,
2013-03-10 13:16:00,59.0,35.3,30.15,SE,128,1.0,8.0,41,0.00,,---,0.00,VWS V14.00,2013-03-10 17:16:00,
2013-03-10 13:21:00,60.4,36.0,30.15,SSE,159,2.0,8.0,40,0.00,,---,0.00,VWS V14.00,2013-03-10 17:21:00,
2013-03-10 13:26:00,61.4,35.6,30.14,East,79,4.0,12.0,38,0.00,,---,0.00,VWS V14.00,2013-03-10 17:26:00,
2013-03-10 13:31:00,61.7,36.5,30.14,SSE,167,1.0,12.0,39,0.00,,---,0.00,VWS V14.00,2013-03-10 17:31:00,
2013-03-10 13:36:00,61.7,35.2,30.14,WSW,242,1.0,12.0,37,0.00,,---,0.00,VWS V14.00,2013-03-10 17:36:00,
2013-03-10 13:41:00,61.8,36.0,30.13,ENE,67,6.0,10.0,38,0.00,,---,0.00,VWS V14.00,2013-03-10 17:41:00,
2013-03-10 13:46:00,62.0,35.5,30.14,SW,234,0.0,10.0,37,0.00,,---,0.00,VWS V14.00,2013-03-10 17:46:00,
2013-03-10 13:51:00,62.4,35.8,30.13,SSE,158,3.0,10.0,37,0.00,,---,0.00,VWS V14.00,2013-03-10 17:51:00,
2013-03-10 13:56:00,62.9,36.2,30.12,East,82,3.0,10.0,37,0.00,,---,0.00,VWS V14.00,2013-03-10 17:56:00,
2013-03-10 14:01:00,63.7,36.3,30.12,South,171,0.0,10.0,36,0.00,,---,0.00,VWS V14.00,2013-03-10 18:01:00,
2013-03-10 14:06:00,65.2,38.3,30.11,South,180,0.0,10.0,37,0.00,,---,0.00,VWS V14.00,2013-03-10 18:06:00,
2013-03-10 14:11:00,65.9,35.2,30.12,East,80,1.0,7.0,32,0.00,,---,0.00,VWS V14.00,2013-03-10 18:11:00,
2013-03-10 14:16:00,66.1,36.2,30.11,NE,44,4.0,9.0,33,0.00,,---,0.00,VWS V14.00,2013-03-10 18:16:00,
2013-03-10 14:21:00,66.0,35.3,30.11,NW,313,2.0,11.0,32,0.00,,---,0.00,VWS V14.00,2013-03-10 18:21:00,
2013-03-10 14:26:00,65.6,36.5,30.11,SE,125,0.0,11.0,34,0.00,,---,0.00,VWS V14.00,2013-03-10 18:26:00,
2013-03-10 14:31:00,65.7,35.8,30.10,NE,45,6.0,11.0,33,0.00,,---,0.00,VWS V14.00,2013-03-10 18:31:00,
2013-03-10 14:36:00,65.3,35.5,30.11,SE,132,0.0,11.0,33,0.00,,---,0.00,VWS V14.00,2013-03-10 18:36:00,
2013-03-10 14:41:00,64.9,35.9,30.10,SSE,156,0.0,11.0,34,0.00,,---,0.00,VWS V14.00,2013-03-10 18:41:00,
2013-03-10 14:46:00,64.8,35.0,30.10,SSW,213,3.0,11.0,33,0.00,,---,0.00,VWS V14.00,2013-03-10 18:46:00,
2013-03-10 14:51:00,65.2,36.9,30.09,WSW,237,2.0,11.0,35,0.00,,---,0.00,VWS V14.00,2013-03-10 18:51:00,
2013-03-10 14:56:00,65.8,35.9,30.10,SSE,152,1.0,11.0,33,0.00,,---,0.00,VWS V14.00,2013-03-10 18:56:00,
2013-03-10 15:01:00,65.9,35.2,30.09,West,277,0.0,11.0,32,0.00,,---,0.00,VWS V14.00,2013-03-10 19:01:00,
2013-03-10 15:06:00,66.0,35.3,30.09,NNW,348,0.0,11.0,32,0.00,,---,0.00,VWS V14.00,2013-03-10 19:06:00,
2013-03-10 15:11:00,66.1,36.2,30.08,NNW,327,5.0,7.0,33,0.00,,---,0.00,VWS V14.00,2013-03-10 19:11:00,
2013-03-10 15:16:00,66.3,35.6,30.09,East,87,2.0,7.0,32,0.00,,---,0.00,VWS V14.00,2013-03-10 19:16:00,
2013-03-10 15:21:00,66.7,35.9,30.08,SE,134,1.0,7.0,32,0.00,,---,0.00,VWS V14.00,2013-03-10 19:21:00,
2013-03-10 15:26:00,66.6,35.8,30.08,ENE,74,1.0,10.0,32,0.00,,---,0.00,VWS V14.00,2013-03-10 19:26:00,
2013-03-10 15:31:00,66.3,35.6,30.09,South,184,1.0,11.0,32,0.00,,---,0.00,VWS V14.00,2013-03-10 19:31:00,
2013-03-10 15:36:00,66.3,35.6,30.08,SE,142,1.0,11.0,32,0.00,,---,0.00,VWS V14.00,2013-03-10 19:36:00,
2013-03-10 15:41:00,66.4,35.7,30.08,South,173,0.0,7.0,32,0.00,,---,0.00,VWS V14.00,2013-03-10 19:41:00,
2013-03-10 15:46:00,66.8,36.0,30.07,South,182,4.0,7.0,32,0.00,,---,0.00,VWS V14.00,2013-03-10 19:46:00,
2013-03-10 15:51:00,67.1,35.5,30.08,SE,128,0.0,7.0,31,0.00,,---,0.00,VWS V14.00,2013-03-10 19:51:00,
2013-03-10 15:56:00,67.4,35.7,30.08,SE,138,0.0,7.0,31,0.00,,---,0.00,VWS V14.00,2013-03-10 19:56:00,
2013-03-10 16:01:00,67.4,34.9,30.08,SSW,204,0.0,9.0,30,0.00,,---,0.00,VWS V14.00,2013-03-10 20:01:00,
2013-03-10 16:06:00,67.0,35.4,30.08,South,187,4.0,9.0,31,0.00,,---,0.00,VWS V14.00,2013-03-10 20:06:00,
2013-03-10 16:11:00,66.2,36.3,30.09,SSW,207,0.0,6.0,33,0.00,,---,0.00,VWS V14.00,2013-03-10 20:11:00,
2013-03-10 16:16:00,65.8,34.3,30.08,East,85,0.0,6.0,31,0.00,,---,0.00,VWS V14.00,2013-03-10 20:16:00,
2013-03-10 16:21:00,65.7,35.8,30.08,SW,215,1.0,6.0,33,0.00,,---,0.00,VWS V14.00,2013-03-10 20:21:00,
2013-03-10 16:26:00,65.6,35.8,30.08,West,279,2.0,6.0,33,0.00,,---,0.00,VWS V14.00,2013-03-10 20:26:00,
2013-03-10 16:31:00,65.8,35.2,30.08,SW,225,0.0,6.0,32,0.00,,---,0.00,VWS V14.00,2013-03-10 20:31:00,
2013-03-10 16:36:00,66.3,34.8,30.08,WSW,240,1.0,7.0,31,0.00,,---,0.00,VWS V14.00,2013-03-10 20:36:00,
2013-03-10 16:41:00,66.7,35.9,30.08,SSW,212,0.0,4.0,32,0.00,,---,0.00,VWS V14.00,2013-03-10 20:41:00,
2013-03-10 16:46:00,66.8,35.2,30.08,West,271,4.0,6.0,31,0.00,,---,0.00,VWS V14.00,2013-03-10 20:46:00,
2013-03-10 16:52:00,66.6,35.8,30.08,SSW,209,0.0,6.0,32,0.00,,---,0.00,VWS V14.00,2013-03-10 20:52:00,
2013-03-10 16:57:00,66.7,35.1,30.08,South,173,2.0,6.0,31,0.00,,---,0.00,VWS V14.00,2013-03-10 20:57:00,
2013-03-10 17:02:00,66.1,35.4,30.08,SSE,167,4.0,8.0,32,0.00,,---,0.00,VWS V14.00,2013-03-10 21:02:00,
2013-03-10 17:07:00,65.7,35.1,30.08,South,174,4.0,5.0,32,0.00,,---,0.00,VWS V14.00,2013-03-10 21:07:00,
2013-03-10 17:12:00,65.6,35.0,30.08,SSE,167,2.0,9.0,32,0.00,,---,0.00,VWS V14.00,2013-03-10 21:12:00,
2013-03-10 17:17:00,65.6,36.5,30.08,WNW,287,0.0,9.0,34,0.00,,---,0.00,VWS V14.00,2013-03-10 21:17:00,
2013-03-10 17:22:00,64.7,34.2,30.08,South,179,0.0,9.0,32,0.00,,---,0.00,VWS V14.00,2013-03-10 21:22:00,
2013-03-10 17:27:00,64.2,34.5,30.09,ESE,107,0.0,11.0,33,0.00,,---,0.00,VWS V14.00,2013-03-10 21:27:00,
2013-03-10 17:32:00,63.8,34.9,30.09,West,261,4.0,11.0,34,0.00,,---,0.00,VWS V14.00,2013-03-10 21:32:00,
2013-03-10 17:37:00,63.4,34.6,30.09,East,87,0.0,4.0,34,0.00,,---,0.00,VWS V14.00,2013-03-10 21:37:00,
2013-03-10 17:42:00,63.1,35.0,30.09,NW,324,3.0,10.0,35,0.00,,---,0.00,VWS V14.00,2013-03-10 21:42:00,
2013-03-10 17:47:00,63.0,34.9,30.09,WSW,257,5.0,10.0,35,0.00,,---,0.00,VWS V14.00,2013-03-10 21:47:00,
2013-03-10 17:52:00,62.8,34.0,30.09,SW,236,0.0,10.0,34,0.00,,---,0.00,VWS V14.00,2013-03-10 21:52:00,
2013-03-10 17:57:00,62.3,35.0,30.09,WSW,241,4.0,10.0,36,0.00,,---,0.00,VWS V14.00,2013-03-10 21:57:00,
2013-03-10 18:02:00,61.7,33.8,30.09,South,187,3.0,10.0,35,0.00,,---,0.00,VWS V14.00,2013-03-10 22:02:00,
2013-03-10 18:07:00,61.1,34.0,30.09,SSW,196,3.0,3.0,36,0.00,,---,0.00,VWS V14.00,2013-03-10 22:07:00,
2013-03-10 18:12:00,60.7,33.6,30.09,WSW,249,3.0,7.0,36,0.00,,---,0.00,VWS V14.00,2013-03-10 22:12:00,
2013-03-10 18:17:00,60.5,34.1,30.09,WSW,243,2.0,7.0,37,0.00,,---,0.00,VWS V14.00,2013-03-10 22:17:00,
2013-03-10 18:22:00,60.3,33.3,30.09,SSW,207,3.0,7.0,36,0.00,,---,0.00,VWS V14.00,2013-03-10 22:22:00,
2013-03-10 18:27:00,60.1,33.8,30.09,SSW,206,0.0,7.0,37,0.00,,---,0.00,VWS V14.00,2013-03-10 22:27:00,
2013-03-10 18:32:00,59.9,34.2,30.09,SSW,207,2.0,7.0,38,0.00,,---,0.00,VWS V14.00,2013-03-10 22:32:00,
2013-03-10 18:37:00,59.8,33.5,30.09,NW,322,0.0,0.0,37,0.00,,---,0.00,VWS V14.00,2013-03-10 22:37:00,
2013-03-10 18:42:00,59.6,33.3,30.09,NW,316,0.0,3.0,37,0.00,,---,0.00,VWS V14.00,2013-03-10 22:42:00,
2013-03-10 18:47:00,59.4,33.8,30.10,SSW,206,1.0,4.0,38,0.00,,---,0.00,VWS V14.00,2013-03-10 22:47:00,
2013-03-10 18:52:00,59.0,32.8,30.11,SSE,163,1.0,5.0,37,0.00,,---,0.00,VWS V14.00,2013-03-10 22:52:00,
2013-03-10 18:57:00,59.0,33.5,30.12,SW,231,0.0,5.0,38,0.00,,---,0.00,VWS V14.00,2013-03-10 22:57:00,
2013-03-10 19:02:00,59.0,32.8,30.11,WSW,245,4.0,5.0,37,0.00,,---,0.00,VWS V14.00,2013-03-10 23:02:00,
2013-03-10 19:07:00,58.9,32.0,30.10,NNW,331,1.0,1.0,36,0.00,,---,0.00,VWS V14.00,2013-03-10 23:07:00,
2013-03-10 19:12:00,58.6,32.4,30.10,West,268,4.0,5.0,37,0.00,,---,0.00,VWS V14.00,2013-03-10 23:12:00,
2013-03-10 19:17:00,58.3,32.2,30.10,WNW,286,0.0,5.0,37,0.00,,---,0.00,VWS V14.00,2013-03-10 23:17:00,
2013-03-10 19:22:00,58.1,32.0,30.10,NW,307,2.0,6.0,37,0.00,,---,0.00,VWS V14.00,2013-03-10 23:22:00,
2013-03-10 19:27:00,57.9,32.5,30.11,SSW,193,0.0,6.0,38,0.00,,---,0.00,VWS V14.00,2013-03-10 23:27:00,
2013-03-10 19:32:00,57.7,31.6,30.11,SSW,211,4.0,7.0,37,0.00,,---,0.00,VWS V14.00,2013-03-10 23:32:00,
2013-03-10 19:37:00,57.5,32.8,30.11,WSW,248,0.0,1.0,39,0.00,,---,0.00,VWS V14.00,2013-03-10 23:37:00,
2013-03-10 19:42:00,57.1,32.4,30.11,WSW,242,0.0,15.0,39,0.00,,---,0.00,VWS V14.00,2013-03-10 23:42:00,
2013-03-10 19:47:00,56.8,32.1,30.11,East,80,0.0,15.0,39,0.00,,---,0.00,VWS V14.00,2013-03-10 23:47:00,
2013-03-10 19:52:00,56.6,32.0,30.12,WSW,254,6.0,15.0,39,0.00,,---,0.00,VWS V14.00,2013-03-10 23:52:00,
2013-03-10 19:57:00,56.5,32.5,30.11,SSW,209,0.0,15.0,40,0.00,,---,0.00,VWS V14.00,2013-03-10 23:57:00,
2013-03-10 20:02:00,56.3,32.3,30.11,North,355,1.0,15.0,40,0.00,,---,0.00,VWS V14.00,2013-03-11 00:02:00,
2013-03-10 20:07:00,56.1,33.3,30.11,West,263,3.0,3.0,42,0.00,,---,0.00,VWS V14.00,2013-03-11 00:07:00,
2013-03-10 20:12:00,56.0,33.2,30.10,WSW,256,0.0,7.0,42,0.00,,---,0.00,VWS V14.00,2013-03-11 00:12:00,
2013-03-10 20:17:00,55.7,33.6,30.11,West,262,0.0,7.0,43,0.00,,---,0.00,VWS V14.00,2013-03-11 00:17:00,
2013-03-10 20:22:00,55.5,34.0,30.11,West,268,1.0,10.0,44,0.00,,---,0.00,VWS V14.00,2013-03-11 00:22:00,
2013-03-10 20:27:00,55.3,33.8,30.11,WNW,289,4.0,11.0,44,0.00,,---,0.00,VWS V14.00,2013-03-11 00:27:00,
2013-03-10 20:32:00,55.2,34.2,30.11,SW,214,0.0,11.0,45,0.00,,---,0.00,VWS V14.00,2013-03-11 00:32:00,
2013-03-10 20:37:00,55.1,33.6,30.11,WNW,284,1.0,4.0,44,0.00,,---,0.00,VWS V14.00,2013-03-11 00:37:00,
2013-03-10 20:42:00,54.9,34.5,30.11,WSW,241,2.0,11.0,46,0.00,,---,0.00,VWS V14.00,2013-03-11 00:42:00,
2013-03-10 20:47:00,54.8,34.4,30.11,WSW,257,3.0,11.0,46,0.00,,---,0.00,VWS V14.00,2013-03-11 00:47:00,
2013-03-10 20:52:00,54.6,34.2,30.11,West,263,3.0,11.0,46,0.00,,---,0.00,VWS V14.00,2013-03-11 00:52:00,
2013-03-10 20:57:00,54.5,34.2,30.11,West,264,5.0,11.0,46,0.00,,---,0.00,VWS V14.00,2013-03-11 00:57:00,
2013-03-10 21:02:00,54.4,34.6,30.12,West,259,3.0,11.0,47,0.00,,---,0.00,VWS V14.00,2013-03-11 01:02:00,
2013-03-10 21:07:00,54.3,34.5,30.11,WSW,255,6.0,6.0,47,0.00,,---,0.00,VWS V14.00,2013-03-11 01:07:00,
2013-03-10 21:13:00,54.2,34.4,30.11,WSW,257,1.0,7.0,47,0.00,,---,0.00,VWS V14.00,2013-03-11 01:13:00,
2013-03-10 21:17:00,54.1,34.9,30.11,West,271,0.0,7.0,48,0.00,,---,0.00,VWS V14.00,2013-03-11 01:17:00,
2013-03-10 21:22:00,54.0,34.8,30.11,West,278,0.0,8.0,48,0.00,,---,0.00,VWS V14.00,2013-03-11 01:22:00,
2013-03-10 21:27:00,53.9,34.7,30.11,West,266,4.0,13.0,48,0.00,,---,0.00,VWS V14.00,2013-03-11 01:27:00,
2013-03-10 21:32:00,54.0,34.8,30.11,West,268,2.0,13.0,48,0.00,,---,0.00,VWS V14.00,2013-03-11 01:32:00,
2013-03-10 21:38:00,54.0,35.3,30.10,WNW,282,0.0,10.0,49,0.00,,---,0.00,VWS V14.00,2013-03-11 01:38:00,
2013-03-10 21:43:00,53.9,35.2,30.11,West,268,3.0,10.0,49,0.00,,---,0.00,VWS V14.00,2013-03-11 01:43:00,
2013-03-10 21:47:00,54.0,35.3,30.11,WSW,237,2.0,10.0,49,0.00,,---,0.00,VWS V14.00,2013-03-11 01:47:00,
2013-03-10 21:52:00,54.0,35.8,30.11,North,355,5.0,10.0,50,0.00,,---,0.00,VWS V14.00,2013-03-11 01:52:00,
2013-03-10 21:57:00,54.0,35.8,30.11,WNW,299,0.0,10.0,50,0.00,,---,0.00,VWS V14.00,2013-03-11 01:57:00,
2013-03-10 22:02:00,54.0,35.8,30.11,NW,306,6.0,11.0,50,0.00,,---,0.00,VWS V14.00,2013-03-11 02:02:00,
2013-03-10 22:07:00,53.9,36.2,30.09,West,273,0.0,4.0,51,0.00,,---,0.00,VWS V14.00,2013-03-11 02:07:00,
2013-03-10 22:12:00,53.7,36.5,30.09,West,259,0.0,10.0,52,0.00,,---,0.00,VWS V14.00,2013-03-11 02:12:00,
2013-03-10 22:17:00,53.7,36.5,30.08,West,279,4.0,10.0,52,0.00,,---,0.00,VWS V14.00,2013-03-11 02:17:00,
2013-03-10 22:22:00,53.6,36.4,30.09,NE,55,0.0,10.0,52,0.00,,---,0.00,VWS V14.00,2013-03-11 02:22:00,
2013-03-10 22:27:00,53.5,36.8,30.09,West,263,4.0,10.0,53,0.00,,---,0.00,VWS V14.00,2013-03-11 02:27:00,
2013-03-10 22:32:00,53.3,36.6,30.09,SW,232,0.0,10.0,53,0.00,,---,0.00,VWS V14.00,2013-03-11 02:32:00,
2013-03-10 22:37:00,53.2,37.0,30.09,WSW,253,0.0,0.0,54,0.00,,---,0.00,VWS V14.00,2013-03-11 02:37:00,
2013-03-10 22:42:00,53.1,36.4,30.09,WNW,284,3.0,5.0,53,0.00,,---,0.00,VWS V14.00,2013-03-11 02:42:00,
2013-03-10 22:48:00,53.0,36.8,30.09,West,268,2.0,5.0,54,0.00,,---,0.00,VWS V14.00,2013-03-11 02:48:00,
2013-03-10 22:53:00,52.9,36.7,30.09,West,264,4.0,6.0,54,0.00,,---,0.00,VWS V14.00,2013-03-11 02:53:00,
2013-03-10 22:58:00,52.7,37.0,30.09,WSW,257,0.0,11.0,55,0.00,,---,0.00,VWS V14.00,2013-03-11 02:58:00,
2013-03-10 23:03:00,52.6,37.4,30.09,West,273,3.0,11.0,56,0.00,,---,0.00,VWS V14.00,2013-03-11 03:03:00,
2013-03-10 23:08:00,52.6,37.4,30.09,NW,309,0.0,3.0,56,0.00,,---,0.00,VWS V14.00,2013-03-11 03:08:00,
2013-03-10 23:13:00,52.6,36.9,30.09,NW,307,1.0,6.0,55,0.00,,---,0.00,VWS V14.00,2013-03-11 03:13:00,
2013-03-10 23:18:00,52.6,36.9,30.09,South,187,0.0,6.0,55,0.00,,---,0.00,VWS V14.00,2013-03-11 03:18:00,
2013-03-10 23:23:00,52.7,37.5,30.09,SSW,200,0.0,6.0,56,0.00,,---,0.00,VWS V14.00,2013-03-11 03:23:00,
2013-03-10 23:28:00,52.6,37.4,30.09,NE,50,0.0,6.0,56,0.00,,---,0.00,VWS V14.00,2013-03-11 03:28:00,
2013-03-10 23:33:00,52.5,37.3,30.09,WSW,248,0.0,6.0,56,0.00,,---,0.00,VWS V14.00,2013-03-11 03:33:00,
2013-03-10 23:38:00,52.5,37.3,30.09,WNW,285,3.0,3.0,56,0.00,,---,0.00,VWS V14.00,2013-03-11 03:38:00,
2013-03-10 23:43:00,52.6,37.4,30.09,NW,313,0.0,4.0,56,0.00,,---,0.00,VWS V14.00,2013-03-11 03:43:00,
2013-03-10 23:48:00,52.6,37.8,30.08,WSW,251,0.0,4.0,57,0.00,,---,0.00,VWS V14.00,2013-03-11 03:48:00,
2013-03-10 23:53:00,52.5,37.7,30.08,West,267,2.0,4.0,57,0.00,,---,0.00,VWS V14.00,2013-03-11 03:53:00,
2013-03-10 23:58:00,52.3,38.0,30.08,SW,215,4.0,5.0,58,0.00,,---,0.00,VWS V14.00,2013-03-11 03:58:00,